No particular awareness of the weather is required.    There are no Weather-warnings


Meteo18 Weather Cam more information Meteo18 Weather Cam


Thunder radar more information blitzortung!


Rain radar more information rain snow radar


Visit our other weather sites:

Template documentation
and downloads

And another site



Weather Underground History page Text

Daily Summary for June 13, 2017 Units:  Both    English   Metric
« Previous Day
Next Day »
Daily Weekly Monthly Yearly Custom
  High: Low: Average:
Temperature: 78.8 °F /  26.0 °C 54.3 °F /  12.4 °C 66.4 °F /  19.1 °C
Dew Point: 59.2 °F /  15.1 °C 49.8 °F /  9.9 °C 54.1 °F /  12.3 °C
Humidity: 85 % 48 % 66 %
Wind Speed: 13 mph /  20.9 km/h - 4.7 mph /  7.5 km/h
Wind Gust: 17 mph /  27.4 km/h - -
Wind:- - East
Pressure: 30.1 in /  1020.5 hPa 30 in /  1016.1 hPa -
Precipitation: 0 in /  0.0 mm    
Historical Graphs
 
 
Tabular Data for June 13, 2017
Time Temperature Dew Point Pressure Wind Wind Speed Wind Gust Humidity Rainfall Rate (Hourly)
00:02 60.6 °F /  15.9 °C 52 °F /  11.1 °C 30.1 in /  1020.5 hPa NNW 3 mph /  4.8 km/h 6 mph /  9.7 km/h 73 % 0 in /  0.0 mm
00:07 60.4 °F /  15.8 °C 51.8 °F /  11.0 °C 30.1 in /  1020.5 hPa NNW 1 mph /  1.6 km/h 6 mph /  9.7 km/h 73 % 0 in /  0.0 mm
00:12 60.1 °F /  15.6 °C 51.8 °F /  11.0 °C 30.1 in /  1020.5 hPa NNW 2 mph /  3.2 km/h 6 mph /  9.7 km/h 74 % 0 in /  0.0 mm
00:17 60.1 °F /  15.6 °C 51.8 °F /  11.0 °C 30.1 in /  1020.2 hPa Calm   6 mph /  9.7 km/h 74 % 0 in /  0.0 mm
00:22 59.9 °F /  15.5 °C 51.6 °F /  10.9 °C 30.1 in /  1020.2 hPa NNW 3 mph /  4.8 km/h 4 mph /  6.4 km/h 74 % 0 in /  0.0 mm
00:32 59.5 °F /  15.3 °C 51.6 °F /  10.9 °C 30.1 in /  1020.2 hPa NNW 1 mph /  1.6 km/h 3 mph /  4.8 km/h 75 % 0 in /  0.0 mm
00:37 59.5 °F /  15.3 °C 51.6 °F /  10.9 °C 30.1 in /  1020.2 hPa Calm   4 mph /  6.4 km/h 75 % 0 in /  0.0 mm
00:42 59.2 °F /  15.1 °C 51.3 °F /  10.7 °C 30.1 in /  1020.2 hPa North 1 mph /  1.6 km/h 4 mph /  6.4 km/h 75 % 0 in /  0.0 mm
00:52 59 °F /  15.0 °C 51.4 °F /  10.8 °C 30.1 in /  1020.2 hPa NNW 2 mph /  3.2 km/h 4 mph /  6.4 km/h 76 % 0 in /  0.0 mm
00:57 59.2 °F /  15.1 °C 51.3 °F /  10.7 °C 30.1 in /  1020.2 hPa NNW 3 mph /  4.8 km/h 5 mph /  8.0 km/h 75 % 0 in /  0.0 mm
01:02 59.2 °F /  15.1 °C 51.3 °F /  10.7 °C 30.1 in /  1020.2 hPa NNE 3 mph /  4.8 km/h 5 mph /  8.0 km/h 75 % 0 in /  0.0 mm
01:12 59.2 °F /  15.1 °C 51.3 °F /  10.7 °C 30.1 in /  1020.2 hPa NNW 3 mph /  4.8 km/h 5 mph /  8.0 km/h 75 % 0 in /  0.0 mm
01:17 59 °F /  15.0 °C 51.1 °F /  10.6 °C 30.1 in /  1020.2 hPa NNW 2 mph /  3.2 km/h 5 mph /  8.0 km/h 75 % 0 in /  0.0 mm
01:22 58.8 °F /  14.9 °C 50.9 °F /  10.5 °C 30.1 in /  1020.2 hPa Calm   5 mph /  8.0 km/h 75 % 0 in /  0.0 mm
01:32 58.3 °F /  14.6 °C 50.7 °F /  10.4 °C 30.1 in /  1020.2 hPa North 2 mph /  3.2 km/h 5 mph /  8.0 km/h 76 % 0 in /  0.0 mm
01:42 58.1 °F /  14.5 °C 50.9 °F /  10.5 °C 30.1 in /  1020.2 hPa ENE 3 mph /  4.8 km/h 4 mph /  6.4 km/h 77 % 0 in /  0.0 mm
01:47 57.7 °F /  14.3 °C 50.5 °F /  10.3 °C 30.1 in /  1020.2 hPa NNW 2 mph /  3.2 km/h 4 mph /  6.4 km/h 77 % 0 in /  0.0 mm
01:52 57.4 °F /  14.1 °C 50.5 °F /  10.3 °C 30.1 in /  1020.2 hPa North 2 mph /  3.2 km/h 4 mph /  6.4 km/h 78 % 0 in /  0.0 mm
01:57 57 °F /  13.9 °C 50.5 °F /  10.3 °C 30.1 in /  1020.2 hPa NNW 1 mph /  1.6 km/h 4 mph /  6.4 km/h 79 % 0 in /  0.0 mm
02:02 57.2 °F /  14.0 °C 50.4 °F /  10.2 °C 30.1 in /  1020.2 hPa North 2 mph /  3.2 km/h 5 mph /  8.0 km/h 78 % 0 in /  0.0 mm
02:07 57 °F /  13.9 °C 50.2 °F /  10.1 °C 30.1 in /  1020.2 hPa NE 3 mph /  4.8 km/h 5 mph /  8.0 km/h 78 % 0 in /  0.0 mm
02:12 56.7 °F /  13.7 °C 50.2 °F /  10.1 °C 30.1 in /  1020.2 hPa NNW 2 mph /  3.2 km/h 5 mph /  8.0 km/h 79 % 0 in /  0.0 mm
02:17 56.8 °F /  13.8 °C 50.4 °F /  10.2 °C 30.1 in /  1020.2 hPa NW 4 mph /  6.4 km/h 4 mph /  6.4 km/h 79 % 0 in /  0.0 mm
02:22 57 °F /  13.9 °C 50.5 °F /  10.3 °C 30.1 in /  1020.2 hPa NNE 1 mph /  1.6 km/h 5 mph /  8.0 km/h 79 % 0 in /  0.0 mm
02:27 57 °F /  13.9 °C 50.2 °F /  10.1 °C 30.1 in /  1020.2 hPa NE 2 mph /  3.2 km/h 7 mph /  11.3 km/h 78 % 0 in /  0.0 mm
02:32 57.2 °F /  14.0 °C 50.4 °F /  10.2 °C 30.1 in /  1020.2 hPa NNW 3 mph /  4.8 km/h 8 mph /  12.9 km/h 78 % 0 in /  0.0 mm
02:37 57 °F /  13.9 °C 50.5 °F /  10.3 °C 30.1 in /  1020.2 hPa NE 2 mph /  3.2 km/h 8 mph /  12.9 km/h 79 % 0 in /  0.0 mm
02:42 57 °F /  13.9 °C 50.5 °F /  10.3 °C 30.1 in /  1019.9 hPa NNE 2 mph /  3.2 km/h 8 mph /  12.9 km/h 79 % 0 in /  0.0 mm
02:47 57 °F /  13.9 °C 50.5 °F /  10.3 °C 30.1 in /  1019.9 hPa NW 2 mph /  3.2 km/h 8 mph /  12.9 km/h 79 % 0 in /  0.0 mm
02:52 56.8 °F /  13.8 °C 50.7 °F /  10.4 °C 30.1 in /  1019.9 hPa NNE 2 mph /  3.2 km/h 6 mph /  9.7 km/h 80 % 0 in /  0.0 mm
02:57 56.7 °F /  13.7 °C 50.5 °F /  10.3 °C 30.1 in /  1019.9 hPa NNE 2 mph /  3.2 km/h 6 mph /  9.7 km/h 80 % 0 in /  0.0 mm
03:02 56.7 °F /  13.7 °C 50.5 °F /  10.3 °C 30.1 in /  1019.9 hPa North 3 mph /  4.8 km/h 6 mph /  9.7 km/h 80 % 0 in /  0.0 mm
03:12 56.7 °F /  13.7 °C 50.5 °F /  10.3 °C 30.1 in /  1019.9 hPa NNW 4 mph /  6.4 km/h 8 mph /  12.9 km/h 80 % 0 in /  0.0 mm
03:17 56.7 °F /  13.7 °C 50.9 °F /  10.5 °C 30.1 in /  1019.9 hPa NNW 2 mph /  3.2 km/h 8 mph /  12.9 km/h 81 % 0 in /  0.0 mm
03:22 56.5 °F /  13.6 °C 50.7 °F /  10.4 °C 30.1 in /  1019.9 hPa NNW 1 mph /  1.6 km/h 8 mph /  12.9 km/h 81 % 0 in /  0.0 mm
03:32 56.1 °F /  13.4 °C 50.7 °F /  10.4 °C 30.1 in /  1019.9 hPa NE 1 mph /  1.6 km/h 8 mph /  12.9 km/h 82 % 0 in /  0.0 mm
03:42 55.8 °F /  13.2 °C 50.7 °F /  10.4 °C 30.1 in /  1019.9 hPa NE 2 mph /  3.2 km/h 6 mph /  9.7 km/h 83 % 0 in /  0.0 mm
03:47 55.8 °F /  13.2 °C 50.7 °F /  10.4 °C 30.1 in /  1019.9 hPa NNW 1 mph /  1.6 km/h 6 mph /  9.7 km/h 83 % 0 in /  0.0 mm
03:52 55.9 °F /  13.3 °C 50.5 °F /  10.3 °C 30.1 in /  1019.9 hPa NE 3 mph /  4.8 km/h 6 mph /  9.7 km/h 82 % 0 in /  0.0 mm
04:02 55.8 °F /  13.2 °C 50.7 °F /  10.4 °C 30.1 in /  1019.9 hPa North 2 mph /  3.2 km/h 6 mph /  9.7 km/h 83 % 0 in /  0.0 mm
04:07 55.8 °F /  13.2 °C 50.7 °F /  10.4 °C 30.1 in /  1019.9 hPa Calm   6 mph /  9.7 km/h 83 % 0 in /  0.0 mm
04:12 55.8 °F /  13.2 °C 50.7 °F /  10.4 °C 30.1 in /  1019.9 hPa ENE 3 mph /  4.8 km/h 6 mph /  9.7 km/h 83 % 0 in /  0.0 mm
04:17 55.6 °F /  13.1 °C 50.5 °F /  10.3 °C 30.1 in /  1019.5 hPa NNW 2 mph /  3.2 km/h 5 mph /  8.0 km/h 83 % 0 in /  0.0 mm
04:22 55.6 °F /  13.1 °C 50.5 °F /  10.3 °C 30.1 in /  1019.9 hPa North 2 mph /  3.2 km/h 5 mph /  8.0 km/h 83 % 0 in /  0.0 mm
04:27 55.6 °F /  13.1 °C 50.5 °F /  10.3 °C 30.1 in /  1019.9 hPa North 3 mph /  4.8 km/h 6 mph /  9.7 km/h 83 % 0 in /  0.0 mm
04:32 55.4 °F /  13.0 °C 50.4 °F /  10.2 °C 30.1 in /  1019.9 hPa NNE 3 mph /  4.8 km/h 6 mph /  9.7 km/h 83 % 0 in /  0.0 mm
04:37 55.2 °F /  12.9 °C 50.2 °F /  10.1 °C 30.1 in /  1019.9 hPa North 5 mph /  8.0 km/h 6 mph /  9.7 km/h 83 % 0 in /  0.0 mm
04:42 55.2 °F /  12.9 °C 50.5 °F /  10.3 °C 30.1 in /  1019.9 hPa NNW 3 mph /  4.8 km/h 6 mph /  9.7 km/h 84 % 0 in /  0.0 mm
04:47 55.2 °F /  12.9 °C 50.5 °F /  10.3 °C 30.1 in /  1019.9 hPa Calm   6 mph /  9.7 km/h 84 % 0 in /  0.0 mm
04:52 55.2 °F /  12.9 °C 50.5 °F /  10.3 °C 30.1 in /  1019.9 hPa Calm   6 mph /  9.7 km/h 84 % 0 in /  0.0 mm
04:57 55 °F /  12.8 °C 50.4 °F /  10.2 °C 30.1 in /  1019.9 hPa NE 1 mph /  1.6 km/h 6 mph /  9.7 km/h 84 % 0 in /  0.0 mm
05:02 55 °F /  12.8 °C 50.4 °F /  10.2 °C 30.1 in /  1019.9 hPa North 4 mph /  6.4 km/h 6 mph /  9.7 km/h 84 % 0 in /  0.0 mm
05:07 55 °F /  12.8 °C 50.4 °F /  10.2 °C 30.1 in /  1019.9 hPa NNE 5 mph /  8.0 km/h 5 mph /  8.0 km/h 84 % 0 in /  0.0 mm
05:17 54.9 °F /  12.7 °C 50.2 °F /  10.1 °C 30.1 in /  1019.5 hPa NNE 1 mph /  1.6 km/h 5 mph /  8.0 km/h 84 % 0 in /  0.0 mm
05:22 54.9 °F /  12.7 °C 50.2 °F /  10.1 °C 30.1 in /  1019.5 hPa Calm   5 mph /  8.0 km/h 84 % 0 in /  0.0 mm
05:27 54.9 °F /  12.7 °C 50.4 °F /  10.2 °C 30.1 in /  1019.5 hPa NNW 1 mph /  1.6 km/h 6 mph /  9.7 km/h 85 % 0 in /  0.0 mm
05:32 54.7 °F /  12.6 °C 50.2 °F /  10.1 °C 30.1 in /  1019.5 hPa NNW 3 mph /  4.8 km/h 6 mph /  9.7 km/h 85 % 0 in /  0.0 mm
05:42 54.7 °F /  12.6 °C 50.2 °F /  10.1 °C 30.1 in /  1019.5 hPa North 3 mph /  4.8 km/h 6 mph /  9.7 km/h 85 % 0 in /  0.0 mm
05:52 54.7 °F /  12.6 °C 50.2 °F /  10.1 °C 30.1 in /  1019.5 hPa NE 5 mph /  8.0 km/h 6 mph /  9.7 km/h 85 % 0 in /  0.0 mm
05:57 54.7 °F /  12.6 °C 50.2 °F /  10.1 °C 30.1 in /  1019.5 hPa NNE 2 mph /  3.2 km/h 6 mph /  9.7 km/h 85 % 0 in /  0.0 mm
06:02 54.7 °F /  12.6 °C 50.2 °F /  10.1 °C 30.1 in /  1019.5 hPa North 3 mph /  4.8 km/h 7 mph /  11.3 km/h 85 % 0 in /  0.0 mm
06:12 54.7 °F /  12.6 °C 50.2 °F /  10.1 °C 30.1 in /  1019.5 hPa ENE 3 mph /  4.8 km/h 7 mph /  11.3 km/h 85 % 0 in /  0.0 mm
06:17 54.5 °F /  12.5 °C 50 °F /  10.0 °C 30.1 in /  1019.5 hPa NNE 2 mph /  3.2 km/h 7 mph /  11.3 km/h 85 % 0 in /  0.0 mm
06:22 54.3 °F /  12.4 °C 49.8 °F /  9.9 °C 30.1 in /  1019.5 hPa NNE 6 mph /  9.7 km/h 7 mph /  11.3 km/h 85 % 0 in /  0.0 mm
06:32 54.9 °F /  12.7 °C 50.4 °F /  10.2 °C 30.1 in /  1019.5 hPa NE 3 mph /  4.8 km/h 8 mph /  12.9 km/h 85 % 0 in /  0.0 mm
06:37 55 °F /  12.8 °C 50.5 °F /  10.3 °C 30.1 in /  1019.5 hPa NE 4 mph /  6.4 km/h 8 mph /  12.9 km/h 85 % 0 in /  0.0 mm
06:42 55.6 °F /  13.1 °C 50.9 °F /  10.5 °C 30.1 in /  1019.5 hPa NW 1 mph /  1.6 km/h 8 mph /  12.9 km/h 84 % 0 in /  0.0 mm
06:47 55.9 °F /  13.3 °C 50.9 °F /  10.5 °C 30.1 in /  1019.5 hPa NE 3 mph /  4.8 km/h 8 mph /  12.9 km/h 83 % 0 in /  0.0 mm
06:52 56.3 °F /  13.5 °C 50.9 °F /  10.5 °C 30.1 in /  1019.5 hPa NE 7 mph /  11.3 km/h 8 mph /  12.9 km/h 82 % 0 in /  0.0 mm
06:57 56.7 °F /  13.7 °C 50.9 °F /  10.5 °C 30.1 in /  1019.5 hPa North 2 mph /  3.2 km/h 8 mph /  12.9 km/h 81 % 0 in /  0.0 mm
07:02 56.7 °F /  13.7 °C 50.9 °F /  10.5 °C 30.1 in /  1019.5 hPa North 4 mph /  6.4 km/h 12 mph /  19.3 km/h 81 % 0 in /  0.0 mm
07:12 57 °F /  13.9 °C 50.9 °F /  10.5 °C 30.1 in /  1019.5 hPa NNE 7 mph /  11.3 km/h 12 mph /  19.3 km/h 80 % 0 in /  0.0 mm
07:17 57.2 °F /  14.0 °C 51.1 °F /  10.6 °C 30.1 in /  1019.5 hPa NNE 5 mph /  8.0 km/h 10 mph /  16.1 km/h 80 % 0 in /  0.0 mm
07:27 57.7 °F /  14.3 °C 51.3 °F /  10.7 °C 30.1 in /  1019.5 hPa NE 5 mph /  8.0 km/h 12 mph /  19.3 km/h 79 % 0 in /  0.0 mm
07:32 57.7 °F /  14.3 °C 51.3 °F /  10.7 °C 30.1 in /  1019.9 hPa NNE 4 mph /  6.4 km/h 12 mph /  19.3 km/h 79 % 0 in /  0.0 mm
07:42 57.6 °F /  14.2 °C 51.1 °F /  10.6 °C 30.1 in /  1019.9 hPa NE 7 mph /  11.3 km/h 12 mph /  19.3 km/h 79 % 0 in /  0.0 mm
07:52 57.6 °F /  14.2 °C 51.1 °F /  10.6 °C 30.1 in /  1019.9 hPa NE 6 mph /  9.7 km/h 12 mph /  19.3 km/h 79 % 0 in /  0.0 mm
08:02 57.6 °F /  14.2 °C 51.4 °F /  10.8 °C 30.1 in /  1019.5 hPa NE 4 mph /  6.4 km/h 12 mph /  19.3 km/h 80 % 0 in /  0.0 mm
08:12 57.7 °F /  14.3 °C 51.6 °F /  10.9 °C 30.1 in /  1019.5 hPa NNE 8 mph /  12.9 km/h 12 mph /  19.3 km/h 80 % 0 in /  0.0 mm
08:17 57.9 °F /  14.4 °C 51.8 °F /  11.0 °C 30.1 in /  1019.5 hPa NNE 8 mph /  12.9 km/h 12 mph /  19.3 km/h 80 % 0 in /  0.0 mm
08:22 57.9 °F /  14.4 °C 51.4 °F /  10.8 °C 30.1 in /  1019.5 hPa NE 7 mph /  11.3 km/h 12 mph /  19.3 km/h 79 % 0 in /  0.0 mm
08:27 58.3 °F /  14.6 °C 51.8 °F /  11.0 °C 30.1 in /  1019.5 hPa East 1 mph /  1.6 km/h 12 mph /  19.3 km/h 79 % 0 in /  0.0 mm
08:32 58.5 °F /  14.7 °C 52 °F /  11.1 °C 30.1 in /  1019.5 hPa NE 3 mph /  4.8 km/h 12 mph /  19.3 km/h 79 % 0 in /  0.0 mm
08:37 58.6 °F /  14.8 °C 52.2 °F /  11.2 °C 30.1 in /  1019.9 hPa NNE 6 mph /  9.7 km/h 12 mph /  19.3 km/h 79 % 0 in /  0.0 mm
08:47 59.2 °F /  15.1 °C 52.3 °F /  11.3 °C 30.1 in /  1019.9 hPa NNE 5 mph /  8.0 km/h 11 mph /  17.7 km/h 78 % 0 in /  0.0 mm
08:52 59.4 °F /  15.2 °C 52.5 °F /  11.4 °C 30.1 in /  1019.9 hPa Calm   11 mph /  17.7 km/h 78 % 0 in /  0.0 mm
09:02 60.6 °F /  15.9 °C 53.1 °F /  11.7 °C 30.1 in /  1019.5 hPa NE 10 mph /  16.1 km/h 10 mph /  16.1 km/h 76 % 0 in /  0.0 mm
09:12 61.3 °F /  16.3 °C 53.1 °F /  11.7 °C 30.1 in /  1019.9 hPa NE 7 mph /  11.3 km/h 11 mph /  17.7 km/h 74 % 0 in /  0.0 mm
09:17 62.2 °F /  16.8 °C 53.8 °F /  12.1 °C 30.1 in /  1019.9 hPa NNE 9 mph /  14.5 km/h 12 mph /  19.3 km/h 74 % 0 in /  0.0 mm
09:22 62.8 °F /  17.1 °C 53.6 °F /  12.0 °C 30.1 in /  1019.5 hPa NNE 7 mph /  11.3 km/h 12 mph /  19.3 km/h 72 % 0 in /  0.0 mm
09:27 62.8 °F /  17.1 °C 52.9 °F /  11.6 °C 30.1 in /  1019.5 hPa NE 9 mph /  14.5 km/h 12 mph /  19.3 km/h 70 % 0 in /  0.0 mm
09:32 63 °F /  17.2 °C 53.8 °F /  12.1 °C 30.1 in /  1019.5 hPa ENE 3 mph /  4.8 km/h 14 mph /  22.5 km/h 72 % 0 in /  0.0 mm
09:37 63.5 °F /  17.5 °C 54 °F /  12.2 °C 30.1 in /  1019.5 hPa NE 3 mph /  4.8 km/h 14 mph /  22.5 km/h 71 % 0 in /  0.0 mm
09:42 63.9 °F /  17.7 °C 54 °F /  12.2 °C 30.1 in /  1019.5 hPa NE 4 mph /  6.4 km/h 14 mph /  22.5 km/h 70 % 0 in /  0.0 mm
09:52 64.2 °F /  17.9 °C 54.3 °F /  12.4 °C 30.1 in /  1019.5 hPa NNE 8 mph /  12.9 km/h 14 mph /  22.5 km/h 70 % 0 in /  0.0 mm
09:57 64.2 °F /  17.9 °C 53.4 °F /  11.9 °C 30.1 in /  1019.2 hPa East 7 mph /  11.3 km/h 14 mph /  22.5 km/h 68 % 0 in /  0.0 mm
10:02 64.6 °F /  18.1 °C 54.5 °F /  12.5 °C 30.1 in /  1019.5 hPa NNE 2 mph /  3.2 km/h 14 mph /  22.5 km/h 70 % 0 in /  0.0 mm
10:12 64.6 °F /  18.1 °C 54.1 °F /  12.3 °C 30.1 in /  1019.5 hPa ENE 6 mph /  9.7 km/h 13 mph /  20.9 km/h 69 % 0 in /  0.0 mm
10:17 64.2 °F /  17.9 °C 53.8 °F /  12.1 °C 30.1 in /  1019.5 hPa NE 9 mph /  14.5 km/h 13 mph /  20.9 km/h 69 % 0 in /  0.0 mm
10:22 64.4 °F /  18.0 °C 54.3 °F /  12.4 °C 30.1 in /  1019.5 hPa NE 7 mph /  11.3 km/h 13 mph /  20.9 km/h 70 % 0 in /  0.0 mm
10:32 65.1 °F /  18.4 °C 54.7 °F /  12.6 °C 30.1 in /  1019.5 hPa NE 7 mph /  11.3 km/h 13 mph /  20.9 km/h 69 % 0 in /  0.0 mm
10:42 66 °F /  18.9 °C 54.3 °F /  12.4 °C 30.1 in /  1019.5 hPa NNE 10 mph /  16.1 km/h 13 mph /  20.9 km/h 66 % 0 in /  0.0 mm
10:52 66 °F /  18.9 °C 54 °F /  12.2 °C 30.1 in /  1019.5 hPa NE 5 mph /  8.0 km/h 14 mph /  22.5 km/h 65 % 0 in /  0.0 mm
10:57 66 °F /  18.9 °C 53.4 °F /  11.9 °C 30.1 in /  1019.5 hPa NE 11 mph /  17.7 km/h 14 mph /  22.5 km/h 64 % 0 in /  0.0 mm
11:02 65.8 °F /  18.8 °C 53.2 °F /  11.8 °C 30.1 in /  1019.5 hPa NE 10 mph /  16.1 km/h 16 mph /  25.7 km/h 64 % 0 in /  0.0 mm
11:07 65.8 °F /  18.8 °C 53.8 °F /  12.1 °C 30.1 in /  1019.5 hPa ENE 6 mph /  9.7 km/h 16 mph /  25.7 km/h 65 % 0 in /  0.0 mm
11:12 66 °F /  18.9 °C 54 °F /  12.2 °C 30.1 in /  1019.5 hPa NE 12 mph /  19.3 km/h 16 mph /  25.7 km/h 65 % 0 in /  0.0 mm
11:17 66.7 °F /  19.3 °C 54.1 °F /  12.3 °C 30.1 in /  1019.5 hPa NNE 9 mph /  14.5 km/h 15 mph /  24.1 km/h 64 % 0 in /  0.0 mm
11:22 67.8 °F /  19.9 °C 54.7 °F /  12.6 °C 30.1 in /  1019.5 hPa ENE 10 mph /  16.1 km/h 14 mph /  22.5 km/h 63 % 0 in /  0.0 mm
11:32 68.5 °F /  20.3 °C 54.5 °F /  12.5 °C 30.1 in /  1019.2 hPa NE 5 mph /  8.0 km/h 14 mph /  22.5 km/h 61 % 0 in /  0.0 mm
11:42 69.4 °F /  20.8 °C 54.5 °F /  12.5 °C 30.1 in /  1019.2 hPa NE 11 mph /  17.7 km/h 17 mph /  27.4 km/h 59 % 0 in /  0.0 mm
11:47 69.3 °F /  20.7 °C 54.3 °F /  12.4 °C 30.1 in /  1019.2 hPa ENE 6 mph /  9.7 km/h 17 mph /  27.4 km/h 59 % 0 in /  0.0 mm
11:52 69.4 °F /  20.8 °C 53.6 °F /  12.0 °C 30.1 in /  1019.2 hPa NE 8 mph /  12.9 km/h 15 mph /  24.1 km/h 57 % 0 in /  0.0 mm
11:57 69.4 °F /  20.8 °C 54 °F /  12.2 °C 30.1 in /  1019.2 hPa ENE 7 mph /  11.3 km/h 16 mph /  25.7 km/h 58 % 0 in /  0.0 mm
12:02 69.8 °F /  21.0 °C 54.3 °F /  12.4 °C 30.1 in /  1019.2 hPa ENE 3 mph /  4.8 km/h 16 mph /  25.7 km/h 58 % 0 in /  0.0 mm
12:12 70.2 °F /  21.2 °C 54.1 °F /  12.3 °C 30.1 in /  1019.2 hPa NE 8 mph /  12.9 km/h 14 mph /  22.5 km/h 57 % 0 in /  0.0 mm
12:17 70.3 °F /  21.3 °C 54.9 °F /  12.7 °C 30.1 in /  1018.8 hPa NE 7 mph /  11.3 km/h 14 mph /  22.5 km/h 58 % 0 in /  0.0 mm
12:22 70.7 °F /  21.5 °C 53.8 °F /  12.1 °C 30.1 in /  1018.8 hPa NE 10 mph /  16.1 km/h 13 mph /  20.9 km/h 55 % 0 in /  0.0 mm
12:27 71.1 °F /  21.7 °C 55 °F /  12.8 °C 30.1 in /  1018.8 hPa NNE 10 mph /  16.1 km/h 13 mph /  20.9 km/h 57 % 0 in /  0.0 mm
12:32 71.1 °F /  21.7 °C 54.1 °F /  12.3 °C 30.1 in /  1018.8 hPa ENE 8 mph /  12.9 km/h 16 mph /  25.7 km/h 55 % 0 in /  0.0 mm
12:42 71.4 °F /  21.9 °C 55.4 °F /  13.0 °C 30.1 in /  1018.8 hPa NNE 13 mph /  20.9 km/h 15 mph /  24.1 km/h 57 % 0 in /  0.0 mm
12:47 71.6 °F /  22.0 °C 54.5 °F /  12.5 °C 30.1 in /  1018.8 hPa NNE 13 mph /  20.9 km/h 15 mph /  24.1 km/h 55 % 0 in /  0.0 mm
12:52 71.6 °F /  22.0 °C 54.5 °F /  12.5 °C 30.1 in /  1018.8 hPa NE 3 mph /  4.8 km/h 15 mph /  24.1 km/h 55 % 0 in /  0.0 mm
12:57 71.6 °F /  22.0 °C 55 °F /  12.8 °C 30.1 in /  1018.8 hPa NE 6 mph /  9.7 km/h 15 mph /  24.1 km/h 56 % 0 in /  0.0 mm
13:02 71.6 °F /  22.0 °C 54.5 °F /  12.5 °C 30.1 in /  1018.8 hPa ENE 6 mph /  9.7 km/h 15 mph /  24.1 km/h 55 % 0 in /  0.0 mm
13:07 72.7 °F /  22.6 °C 56.1 °F /  13.4 °C 30.1 in /  1018.8 hPa ENE 6 mph /  9.7 km/h 12 mph /  19.3 km/h 56 % 0 in /  0.0 mm
13:12 72.9 °F /  22.7 °C 54.7 °F /  12.6 °C 30.1 in /  1018.8 hPa Calm   12 mph /  19.3 km/h 53 % 0 in /  0.0 mm
13:17 73 °F /  22.8 °C 55.4 °F /  13.0 °C 30.1 in /  1018.8 hPa NE 8 mph /  12.9 km/h 12 mph /  19.3 km/h 54 % 0 in /  0.0 mm
13:22 73.2 °F /  22.9 °C 55.6 °F /  13.1 °C 30.1 in /  1018.5 hPa ENE 8 mph /  12.9 km/h 12 mph /  19.3 km/h 54 % 0 in /  0.0 mm
13:32 72.9 °F /  22.7 °C 55.2 °F /  12.9 °C 30.1 in /  1018.5 hPa ENE 7 mph /  11.3 km/h 15 mph /  24.1 km/h 54 % 0 in /  0.0 mm
13:37 72.9 °F /  22.7 °C 55.8 °F /  13.2 °C 30.1 in /  1018.5 hPa NE 5 mph /  8.0 km/h 15 mph /  24.1 km/h 55 % 0 in /  0.0 mm
13:42 73 °F /  22.8 °C 54.9 °F /  12.7 °C 30.1 in /  1018.5 hPa NNE 6 mph /  9.7 km/h 15 mph /  24.1 km/h 53 % 0 in /  0.0 mm
13:52 73 °F /  22.8 °C 54.9 °F /  12.7 °C 30.1 in /  1018.5 hPa NNE 6 mph /  9.7 km/h 15 mph /  24.1 km/h 53 % 0 in /  0.0 mm
13:57 73 °F /  22.8 °C 55.4 °F /  13.0 °C 30.1 in /  1018.5 hPa North 9 mph /  14.5 km/h 15 mph /  24.1 km/h 54 % 0 in /  0.0 mm
14:02 73.6 °F /  23.1 °C 55.9 °F /  13.3 °C 30.1 in /  1018.5 hPa ENE 7 mph /  11.3 km/h 15 mph /  24.1 km/h 54 % 0 in /  0.0 mm
14:07 73.8 °F /  23.2 °C 56.1 °F /  13.4 °C 30.1 in /  1018.5 hPa North 5 mph /  8.0 km/h 14 mph /  22.5 km/h 54 % 0 in /  0.0 mm
14:12 74.1 °F /  23.4 °C 55.9 °F /  13.3 °C 30.1 in /  1018.5 hPa NE 8 mph /  12.9 km/h 12 mph /  19.3 km/h 53 % 0 in /  0.0 mm
14:17 74.1 °F /  23.4 °C 55.4 °F /  13.0 °C 30.1 in /  1018.5 hPa NE 11 mph /  17.7 km/h 12 mph /  19.3 km/h 52 % 0 in /  0.0 mm
14:22 74.7 °F /  23.7 °C 56.5 °F /  13.6 °C 30.1 in /  1018.5 hPa NNE 6 mph /  9.7 km/h 13 mph /  20.9 km/h 53 % 0 in /  0.0 mm
14:32 75 °F /  23.9 °C 55 °F /  12.8 °C 30.1 in /  1018.5 hPa ENE 5 mph /  8.0 km/h 11 mph /  17.7 km/h 50 % 0 in /  0.0 mm
14:42 75.6 °F /  24.2 °C 56.7 °F /  13.7 °C 30.1 in /  1018.5 hPa NE 6 mph /  9.7 km/h 10 mph /  16.1 km/h 52 % 0 in /  0.0 mm
14:52 75.9 °F /  24.4 °C 56.5 °F /  13.6 °C 30.1 in /  1018.2 hPa NE 4 mph /  6.4 km/h 12 mph /  19.3 km/h 51 % 0 in /  0.0 mm
14:57 75.9 °F /  24.4 °C 56.5 °F /  13.6 °C 30.1 in /  1018.2 hPa ENE 5 mph /  8.0 km/h 12 mph /  19.3 km/h 51 % 0 in /  0.0 mm
15:02 75.9 °F /  24.4 °C 55.9 °F /  13.3 °C 30.1 in /  1018.2 hPa NE 4 mph /  6.4 km/h 12 mph /  19.3 km/h 50 % 0 in /  0.0 mm
15:12 75.7 °F /  24.3 °C 55.2 °F /  12.9 °C 30.1 in /  1018.2 hPa Calm   11 mph /  17.7 km/h 49 % 0 in /  0.0 mm
15:22 75.7 °F /  24.3 °C 55.8 °F /  13.2 °C 30.1 in /  1018.2 hPa East 2 mph /  3.2 km/h 11 mph /  17.7 km/h 50 % 0 in /  0.0 mm
15:32 75.7 °F /  24.3 °C 56.3 °F /  13.5 °C 30.1 in /  1017.8 hPa ENE 8 mph /  12.9 km/h 12 mph /  19.3 km/h 51 % 0 in /  0.0 mm
15:37 75.7 °F /  24.3 °C 55.8 °F /  13.2 °C 30.1 in /  1017.8 hPa ENE 6 mph /  9.7 km/h 12 mph /  19.3 km/h 50 % 0 in /  0.0 mm
15:42 75.9 °F /  24.4 °C 57 °F /  13.9 °C 30.1 in /  1017.5 hPa ENE 7 mph /  11.3 km/h 12 mph /  19.3 km/h 52 % 0 in /  0.0 mm
15:52 75.7 °F /  24.3 °C 56.8 °F /  13.8 °C 30.1 in /  1017.5 hPa NNE 4 mph /  6.4 km/h 11 mph /  17.7 km/h 52 % 0 in /  0.0 mm
15:57 76.3 °F /  24.6 °C 56.8 °F /  13.8 °C 30.1 in /  1017.5 hPa East 6 mph /  9.7 km/h 12 mph /  19.3 km/h 51 % 0 in /  0.0 mm
16:02 76.8 °F /  24.9 °C 57.4 °F /  14.1 °C 30.1 in /  1017.5 hPa NE 6 mph /  9.7 km/h 12 mph /  19.3 km/h 51 % 0 in /  0.0 mm
16:07 76.6 °F /  24.8 °C 57.2 °F /  14.0 °C 30.1 in /  1017.5 hPa NE 2 mph /  3.2 km/h 12 mph /  19.3 km/h 51 % 0 in /  0.0 mm
16:12 76.8 °F /  24.9 °C 56.8 °F /  13.8 °C 30 in /  1017.2 hPa NE 5 mph /  8.0 km/h 11 mph /  17.7 km/h 50 % 0 in /  0.0 mm
16:17 76.8 °F /  24.9 °C 56.3 °F /  13.5 °C 30.1 in /  1017.5 hPa NNW 6 mph /  9.7 km/h 11 mph /  17.7 km/h 49 % 0 in /  0.0 mm
16:22 76.6 °F /  24.8 °C 56.7 °F /  13.7 °C 30.1 in /  1017.5 hPa NE 5 mph /  8.0 km/h 10 mph /  16.1 km/h 50 % 0 in /  0.0 mm
16:32 76.5 °F /  24.7 °C 57 °F /  13.9 °C 30 in /  1017.2 hPa ENE 2 mph /  3.2 km/h 10 mph /  16.1 km/h 51 % 0 in /  0.0 mm
16:37 77.2 °F /  25.1 °C 57 °F /  13.9 °C 30 in /  1017.2 hPa NE 2 mph /  3.2 km/h 10 mph /  16.1 km/h 50 % 0 in /  0.0 mm
16:42 77.2 °F /  25.1 °C 56.5 °F /  13.6 °C 30 in /  1017.2 hPa ENE 6 mph /  9.7 km/h 10 mph /  16.1 km/h 49 % 0 in /  0.0 mm
16:52 77.2 °F /  25.1 °C 57 °F /  13.9 °C 30 in /  1017.2 hPa NE 3 mph /  4.8 km/h 9 mph /  14.5 km/h 50 % 0 in /  0.0 mm
16:57 77 °F /  25.0 °C 57.6 °F /  14.2 °C 30 in /  1017.2 hPa ENE 6 mph /  9.7 km/h 9 mph /  14.5 km/h 51 % 0 in /  0.0 mm
17:02 77.2 °F /  25.1 °C 56.5 °F /  13.6 °C 30 in /  1017.2 hPa ENE 3 mph /  4.8 km/h 9 mph /  14.5 km/h 49 % 0 in /  0.0 mm
17:07 77 °F /  25.0 °C 57 °F /  13.9 °C 30 in /  1017.2 hPa NE 7 mph /  11.3 km/h 9 mph /  14.5 km/h 50 % 0 in /  0.0 mm
17:12 76.8 °F /  24.9 °C 57.4 °F /  14.1 °C 30 in /  1017.2 hPa NE 2 mph /  3.2 km/h 9 mph /  14.5 km/h 51 % 0 in /  0.0 mm
17:17 77.2 °F /  25.1 °C 56.5 °F /  13.6 °C 30 in /  1017.2 hPa ENE 5 mph /  8.0 km/h 8 mph /  12.9 km/h 49 % 0 in /  0.0 mm
17:22 76.8 °F /  24.9 °C 57.4 °F /  14.1 °C 30 in /  1016.8 hPa NE 2 mph /  3.2 km/h 10 mph /  16.1 km/h 51 % 0 in /  0.0 mm
17:27 77.4 °F /  25.2 °C 57.2 °F /  14.0 °C 30 in /  1016.8 hPa NNE 3 mph /  4.8 km/h 10 mph /  16.1 km/h 50 % 0 in /  0.0 mm
17:32 77.5 °F /  25.3 °C 57.4 °F /  14.1 °C 30 in /  1016.8 hPa North 2 mph /  3.2 km/h 10 mph /  16.1 km/h 50 % 0 in /  0.0 mm
17:37 77.7 °F /  25.4 °C 56.5 °F /  13.6 °C 30 in /  1016.8 hPa ENE 3 mph /  4.8 km/h 9 mph /  14.5 km/h 48 % 0 in /  0.0 mm
17:42 77.5 °F /  25.3 °C 56.3 °F /  13.5 °C 30 in /  1016.8 hPa NE 6 mph /  9.7 km/h 8 mph /  12.9 km/h 48 % 0 in /  0.0 mm
17:47 77.7 °F /  25.4 °C 57.6 °F /  14.2 °C 30 in /  1016.8 hPa ENE 4 mph /  6.4 km/h 9 mph /  14.5 km/h 50 % 0 in /  0.0 mm
17:52 77.7 °F /  25.4 °C 57 °F /  13.9 °C 30 in /  1016.8 hPa ENE 4 mph /  6.4 km/h 10 mph /  16.1 km/h 49 % 0 in /  0.0 mm
17:57 78.1 °F /  25.6 °C 57.9 °F /  14.4 °C 30 in /  1016.8 hPa NE 5 mph /  8.0 km/h 10 mph /  16.1 km/h 50 % 0 in /  0.0 mm
18:02 77.7 °F /  25.4 °C 57.6 °F /  14.2 °C 30 in /  1016.8 hPa NNE 3 mph /  4.8 km/h 10 mph /  16.1 km/h 50 % 0 in /  0.0 mm
18:07 77.7 °F /  25.4 °C 57 °F /  13.9 °C 30 in /  1016.8 hPa East 3 mph /  4.8 km/h 9 mph /  14.5 km/h 49 % 0 in /  0.0 mm
18:12 77.9 °F /  25.5 °C 57.7 °F /  14.3 °C 30 in /  1016.8 hPa NE 1 mph /  1.6 km/h 9 mph /  14.5 km/h 50 % 0 in /  0.0 mm
18:17 78.4 °F /  25.8 °C 57.7 °F /  14.3 °C 30 in /  1016.5 hPa NNE 4 mph /  6.4 km/h 9 mph /  14.5 km/h 49 % 0 in /  0.0 mm
18:27 78.8 °F /  26.0 °C 57.4 °F /  14.1 °C 30 in /  1016.5 hPa NE 6 mph /  9.7 km/h 9 mph /  14.5 km/h 48 % 0 in /  0.0 mm
18:32 78.4 °F /  25.8 °C 57.7 °F /  14.3 °C 30 in /  1016.1 hPa NNE 5 mph /  8.0 km/h 9 mph /  14.5 km/h 49 % 0 in /  0.0 mm
18:42 78.1 °F /  25.6 °C 57.4 °F /  14.1 °C 30 in /  1016.1 hPa NE 3 mph /  4.8 km/h 16 mph /  25.7 km/h 49 % 0 in /  0.0 mm
18:47 77.9 °F /  25.5 °C 57.2 °F /  14.0 °C 30 in /  1016.1 hPa NNE 7 mph /  11.3 km/h 13 mph /  20.9 km/h 49 % 0 in /  0.0 mm
18:52 78.1 °F /  25.6 °C 58.5 °F /  14.7 °C 30 in /  1016.1 hPa NNE 6 mph /  9.7 km/h 13 mph /  20.9 km/h 51 % 0 in /  0.0 mm
19:02 77.4 °F /  25.2 °C 58.3 °F /  14.6 °C 30 in /  1016.5 hPa North 4 mph /  6.4 km/h 13 mph /  20.9 km/h 52 % 0 in /  0.0 mm
19:12 77.2 °F /  25.1 °C 59.2 °F /  15.1 °C 30 in /  1016.5 hPa NE 5 mph /  8.0 km/h 12 mph /  19.3 km/h 54 % 0 in /  0.0 mm
19:17 77 °F /  25.0 °C 59 °F /  15.0 °C 30 in /  1016.5 hPa ENE 4 mph /  6.4 km/h 12 mph /  19.3 km/h 54 % 0 in /  0.0 mm
19:22 77.2 °F /  25.1 °C 59.2 °F /  15.1 °C 30 in /  1016.8 hPa NNE 8 mph /  12.9 km/h 11 mph /  17.7 km/h 54 % 0 in /  0.0 mm
19:32 76.6 °F /  24.8 °C 58.8 °F /  14.9 °C 30 in /  1016.5 hPa NE 10 mph /  16.1 km/h 13 mph /  20.9 km/h 54 % 0 in /  0.0 mm
19:37 76.5 °F /  24.7 °C 58.6 °F /  14.8 °C 30 in /  1016.8 hPa NE 6 mph /  9.7 km/h 13 mph /  20.9 km/h 54 % 0 in /  0.0 mm
19:42 76.6 °F /  24.8 °C 58.8 °F /  14.9 °C 30 in /  1017.2 hPa ENE 5 mph /  8.0 km/h 13 mph /  20.9 km/h 54 % 0 in /  0.0 mm
19:47 76.3 °F /  24.6 °C 58.5 °F /  14.7 °C 30 in /  1017.2 hPa NE 9 mph /  14.5 km/h 13 mph /  20.9 km/h 54 % 0 in /  0.0 mm
19:52 75.9 °F /  24.4 °C 58.6 °F /  14.8 °C 30 in /  1017.2 hPa ENE 4 mph /  6.4 km/h 12 mph /  19.3 km/h 55 % 0 in /  0.0 mm
19:57 75.6 °F /  24.2 °C 58.3 °F /  14.6 °C 30 in /  1017.2 hPa North 8 mph /  12.9 km/h 12 mph /  19.3 km/h 55 % 0 in /  0.0 mm
20:02 75.2 °F /  24.0 °C 58.5 °F /  14.7 °C 30 in /  1017.2 hPa NE 5 mph /  8.0 km/h 12 mph /  19.3 km/h 56 % 0 in /  0.0 mm
20:07 74.8 °F /  23.8 °C 58.6 °F /  14.8 °C 30 in /  1017.2 hPa NNW 4 mph /  6.4 km/h 12 mph /  19.3 km/h 57 % 0 in /  0.0 mm
20:12 74.5 °F /  23.6 °C 58.8 °F /  14.9 °C 30 in /  1017.2 hPa NNE 4 mph /  6.4 km/h 12 mph /  19.3 km/h 58 % 0 in /  0.0 mm
20:17 73.9 °F /  23.3 °C 58.6 °F /  14.8 °C 30 in /  1017.2 hPa North 3 mph /  4.8 km/h 9 mph /  14.5 km/h 59 % 0 in /  0.0 mm
20:22 73.6 °F /  23.1 °C 57.9 °F /  14.4 °C 30.1 in /  1017.5 hPa NNW 5 mph /  8.0 km/h 7 mph /  11.3 km/h 58 % 0 in /  0.0 mm
20:32 72.9 °F /  22.7 °C 57.2 °F /  14.0 °C 30.1 in /  1017.5 hPa NNE 4 mph /  6.4 km/h 8 mph /  12.9 km/h 58 % 0 in /  0.0 mm
20:37 72.7 °F /  22.6 °C 57.6 °F /  14.2 °C 30.1 in /  1017.5 hPa NNW 5 mph /  8.0 km/h 8 mph /  12.9 km/h 59 % 0 in /  0.0 mm
20:42 72.3 °F /  22.4 °C 57.2 °F /  14.0 °C 30.1 in /  1017.5 hPa NNW 5 mph /  8.0 km/h 8 mph /  12.9 km/h 59 % 0 in /  0.0 mm
20:47 72.1 °F /  22.3 °C 57 °F /  13.9 °C 30.1 in /  1017.5 hPa NNW 5 mph /  8.0 km/h 9 mph /  14.5 km/h 59 % 0 in /  0.0 mm
20:52 72 °F /  22.2 °C 56.8 °F /  13.8 °C 30.1 in /  1017.5 hPa NNE 5 mph /  8.0 km/h 9 mph /  14.5 km/h 59 % 0 in /  0.0 mm
20:57 71.4 °F /  21.9 °C 56.3 °F /  13.5 °C 30 in /  1017.2 hPa North 8 mph /  12.9 km/h 10 mph /  16.1 km/h 59 % 0 in /  0.0 mm
21:02 71.2 °F /  21.8 °C 56.1 °F /  13.4 °C 30 in /  1017.2 hPa NNE 4 mph /  6.4 km/h 10 mph /  16.1 km/h 59 % 0 in /  0.0 mm
21:12 70.9 °F /  21.6 °C 55.4 °F /  13.0 °C 30 in /  1017.2 hPa NNE 5 mph /  8.0 km/h 14 mph /  22.5 km/h 58 % 0 in /  0.0 mm
21:17 70.7 °F /  21.5 °C 55.2 °F /  12.9 °C 30 in /  1016.8 hPa NNE 8 mph /  12.9 km/h 14 mph /  22.5 km/h 58 % 0 in /  0.0 mm
21:22 70.7 °F /  21.5 °C 54.7 °F /  12.6 °C 30 in /  1016.5 hPa NE 13 mph /  20.9 km/h 14 mph /  22.5 km/h 57 % 0 in /  0.0 mm
21:32 70.7 °F /  21.5 °C 54.3 °F /  12.4 °C 30 in /  1016.1 hPa ENE 7 mph /  11.3 km/h 14 mph /  22.5 km/h 56 % 0 in /  0.0 mm
21:37 70.7 °F /  21.5 °C 54.3 °F /  12.4 °C 30 in /  1016.5 hPa NNE 11 mph /  17.7 km/h 16 mph /  25.7 km/h 56 % 0 in /  0.0 mm
21:42 70.5 °F /  21.4 °C 54.1 °F /  12.3 °C 30 in /  1016.5 hPa NNE 6 mph /  9.7 km/h 16 mph /  25.7 km/h 56 % 0 in /  0.0 mm
21:52 70 °F /  21.1 °C 54.5 °F /  12.5 °C 30 in /  1016.5 hPa WNW 4 mph /  6.4 km/h 14 mph /  22.5 km/h 58 % 0 in /  0.0 mm
21:57 69.8 °F /  21.0 °C 55.2 °F /  12.9 °C 30 in /  1016.5 hPa NNE 2 mph /  3.2 km/h 10 mph /  16.1 km/h 60 % 0 in /  0.0 mm
22:02 69.4 °F /  20.8 °C 55.9 °F /  13.3 °C 30 in /  1016.5 hPa NNE 8 mph /  12.9 km/h 12 mph /  19.3 km/h 62 % 0 in /  0.0 mm
22:07 69.3 °F /  20.7 °C 55.8 °F /  13.2 °C 30 in /  1016.5 hPa North 6 mph /  9.7 km/h 14 mph /  22.5 km/h 62 % 0 in /  0.0 mm
22:12 69.3 °F /  20.7 °C 55.8 °F /  13.2 °C 30 in /  1016.8 hPa North 3 mph /  4.8 km/h 14 mph /  22.5 km/h 62 % 0 in /  0.0 mm
22:17 69.1 °F /  20.6 °C 55.9 °F /  13.3 °C 30 in /  1017.2 hPa NE 13 mph /  20.9 km/h 14 mph /  22.5 km/h 63 % 0 in /  0.0 mm
22:22 69.1 °F /  20.6 °C 55.9 °F /  13.3 °C 30 in /  1017.2 hPa NE 10 mph /  16.1 km/h 15 mph /  24.1 km/h 63 % 0 in /  0.0 mm
22:32 68.5 °F /  20.3 °C 55.9 °F /  13.3 °C 30.1 in /  1017.5 hPa NNE 5 mph /  8.0 km/h 15 mph /  24.1 km/h 64 % 0 in /  0.0 mm
22:37 68.5 °F /  20.3 °C 55.9 °F /  13.3 °C 30.1 in /  1017.5 hPa ENE 5 mph /  8.0 km/h 13 mph /  20.9 km/h 64 % 0 in /  0.0 mm
22:42 68.4 °F /  20.2 °C 56.1 °F /  13.4 °C 30 in /  1017.2 hPa NE 7 mph /  11.3 km/h 13 mph /  20.9 km/h 65 % 0 in /  0.0 mm
22:47 68.2 °F /  20.1 °C 56.3 °F /  13.5 °C 30.1 in /  1017.5 hPa NNE 9 mph /  14.5 km/h 16 mph /  25.7 km/h 66 % 0 in /  0.0 mm
22:52 68 °F /  20.0 °C 56.3 °F /  13.5 °C 30.1 in /  1017.8 hPa NNE 5 mph /  8.0 km/h 16 mph /  25.7 km/h 66 % 0 in /  0.0 mm
22:57 67.8 °F /  19.9 °C 56.5 °F /  13.6 °C 30.1 in /  1017.8 hPa NE 3 mph /  4.8 km/h 16 mph /  25.7 km/h 67 % 0 in /  0.0 mm
23:02 67.6 °F /  19.8 °C 56.7 °F /  13.7 °C 30.1 in /  1017.8 hPa NE 8 mph /  12.9 km/h 16 mph /  25.7 km/h 68 % 0 in /  0.0 mm
23:12 67.5 °F /  19.7 °C 57 °F /  13.9 °C 30.1 in /  1018.2 hPa North 4 mph /  6.4 km/h 9 mph /  14.5 km/h 69 % 0 in /  0.0 mm
23:22 67.1 °F /  19.5 °C 56.7 °F /  13.7 °C 30.1 in /  1018.8 hPa NNE 1 mph /  1.6 km/h 9 mph /  14.5 km/h 69 % 0 in /  0.0 mm
23:27 66.9 °F /  19.4 °C 56.8 °F /  13.8 °C 30.1 in /  1018.8 hPa Calm   9 mph /  14.5 km/h 70 % 0 in /  0.0 mm
23:32 66.9 °F /  19.4 °C 57.2 °F /  14.0 °C 30.1 in /  1018.8 hPa Calm   9 mph /  14.5 km/h 71 % 0 in /  0.0 mm
23:37 66.6 °F /  19.2 °C 57.2 °F /  14.0 °C 30.1 in /  1018.8 hPa Calm   4 mph /  6.4 km/h 72 % 0 in /  0.0 mm
23:42 66.2 °F /  19.0 °C 57.7 °F /  14.3 °C 30.1 in /  1018.8 hPa NE 2 mph /  3.2 km/h 4 mph /  6.4 km/h 74 % 0 in /  0.0 mm
23:47 65.8 °F /  18.8 °C 57 °F /  13.9 °C 30.1 in /  1018.5 hPa ENE 3 mph /  4.8 km/h 7 mph /  11.3 km/h 73 % 0 in /  0.0 mm
23:52 65.7 °F /  18.7 °C 57.9 °F /  14.4 °C 30.1 in /  1017.8 hPa NE 3 mph /  4.8 km/h 11 mph /  17.7 km/h 76 % 0 in /  0.0 mm
Meteo18
Compliments of Weather Underground - 4 mb

Script developed by  Jim McMurry - jmcmurry@mwt.net Adapted for the template by  Wim van der Kuil - Leuven-Template.eu

You find our weather info also at:

European Weather Network

Weather Underground

Equipment we use:

Weather-station
Davis Vue

Weather-program
Meteohub

Weather-server
Raspberry PI 2 B+

Provider
1 and 1

Davis Vue

Meteohub

Raspberry PI 2 B+

1 and 1